Main page
METAR-TAF:

METAR-TAF

Airports :

Kumamoto Airport

Kumamoto, Japan

latitude: 32-50N, longitude: 130-51E, elevation: 193 m

Current weather observation

The report was made 8 hours and 26 minutes ago, at 12:00 UTC
Wind 2 kt from variable directions
Temperature 28°C
Humidity 79%
Pressure 1013 hPa
Visibility 10 km or more
Few clouds at a height of 3500 ft

METAR: RJFT 211200Z VRB02KT 9999 FEW035 28/24 Q1013

Time: 05:26 (20:26 UTC)

Forecast

The report was made 3 hours and 21 minutes ago, at 17:05 UTC
Forecast valid from 21 at 18 UTC to 23 at 00 UTC
Wind 5 kt from the East
Visibility 10 km or more
Few clouds at a height of 3000 ft
Becoming
from 21 at 21 UTC to 21 at 23 UTC
Wind 7 kt from the West/Southwest
Becoming
from 22 at 12 UTC to 22 at 15 UTC
Wind 3 kt from the Southeast

TAF: RJFT 211705Z 2118/2300 09005KT 9999 FEW030 BECMG 2121/2123 24007KT BECMG 2212/2215 13003KT

Weather observations and forecasts of more than 4000 airports (METAR and TAF reports).

The available stations are represented by yellow and red dots on the map.

Hover mouse over dot to see the name of the station.

Then click to see weather observations and forecasts.

To change the map : click on the green buttons with a black cross to zoom in, on the green button with a dash to zoom out, or on the green arrows for adjacent maps.


METAR-TAF: